Time;durP1;ratioP1;P1;durP2;ratioP2;P2;SDS_P1;SDS_P2;PMS_P1;PMS_P2;Temp;Humidity;BMP_temperature;BMP_pressure;BME280_temperature;BME280_humidity;BME280_pressure;Samples;Min_cycle;Max_cycle;Signal;HPM_P1;HPM_P2
2022/04/03 00:01:18;;;;;;;9.07;3.63;;;;;;;-0.60;68.69;102316.63;5013500;28;20097;-75
2022/04/03 00:03:44;;;;;;;8.82;3.75;;;;;;;-0.63;68.77;102323.13;5020388;28;20009;-75
2022/04/03 00:06:09;;;;;;;7.05;3.25;;;;;;;-0.67;68.60;102319.38;5020609;28;20026;-75
2022/04/03 00:08:34;;;;;;;7.57;3.38;;;;;;;-0.68;68.38;102321.78;5015286;28;20022;-82
2022/04/03 00:10:59;;;;;;;7.20;3.50;;;;;;;-0.75;68.77;102320.34;5017141;28;20280;-82
2022/04/03 00:13:25;;;;;;;5.53;3.33;;;;;;;-0.78;69.35;102317.47;5016564;28;20327;-82
2022/04/03 00:15:51;;;;;;;7.25;3.88;;;;;;;-0.79;69.22;102320.81;5022261;28;20057;-82
2022/04/03 00:18:16;;;;;;;7.82;4.10;;;;;;;-0.80;69.02;102312.19;5020391;28;20176;-82
2022/04/03 00:20:42;;;;;;;8.38;3.80;;;;;;;-0.81;69.54;102312.06;5010823;28;20018;-82
2022/04/03 00:23:08;;;;;;;8.25;3.75;;;;;;;-0.80;69.50;102319.00;5021410;28;20268;-82
2022/04/03 00:25:34;;;;;;;7.40;3.85;;;;;;;-0.81;69.59;102312.97;5019325;28;20033;-82
2022/04/03 00:27:59;;;;;;;6.93;3.88;;;;;;;-0.79;69.69;102315.69;5015728;28;20030;-82
2022/04/03 00:30:25;;;;;;;8.13;4.05;;;;;;;-0.81;69.03;102314.63;5016028;28;20077;-82
2022/04/03 00:32:50;;;;;;;6.53;3.65;;;;;;;-0.84;68.70;102310.16;5014995;28;20040;-82
2022/04/03 00:35:16;;;;;;;7.45;3.95;;;;;;;-0.86;68.70;102310.75;5018553;28;20025;-82
2022/04/03 00:37:42;;;;;;;7.55;4.20;;;;;;;-0.89;69.52;102314.81;5019343;28;20033;-76
2022/04/03 00:40:08;;;;;;;6.85;3.60;;;;;;;-0.91;69.19;102311.22;5012306;28;20046;-75
2022/04/03 00:42:36;;;;;;;7.18;3.83;;;;;;;-0.95;69.03;102319.34;5016349;28;20072;-75
2022/04/03 00:45:03;;;;;;;8.23;3.97;;;;;;;-0.97;69.26;102317.41;5020080;28;20025;-75
2022/04/03 00:47:29;;;;;;;7.95;4.20;;;;;;;-1.01;68.97;102310.19;5022363;28;20312;-75
2022/04/03 00:49:55;;;;;;;8.93;4.00;;;;;;;-1.02;69.12;102313.53;5012772;28;20010;-75
2022/04/03 00:52:20;;;;;;;10.77;4.03;;;;;;;-1.04;69.24;102310.84;5016168;28;20086;-75
2022/04/03 00:54:47;;;;;;;7.93;4.30;;;;;;;-1.05;68.80;102314.13;5012055;28;20018;-75
2022/04/03 00:57:13;;;;;;;7.15;3.83;;;;;;;-1.07;69.08;102310.53;5014937;28;20026;-75
2022/04/03 00:59:41;;;;;;;7.50;4.00;;;;;;;-1.10;69.02;102320.47;5016845;28;20029;-75
2022/04/03 01:02:06;;;;;;;8.07;4.13;;;;;;;-1.14;69.09;102315.84;5010460;28;20028;-75
2022/04/03 01:04:32;;;;;;;7.53;4.03;;;;;;;-1.15;70.08;102314.03;5017008;28;20022;-75
2022/04/03 01:06:58;;;;;;;7.82;3.95;;;;;;;-1.15;70.39;102306.34;5018563;28;20021;-82
2022/04/03 01:09:23;;;;;;;7.32;3.95;;;;;;;-1.16;69.98;102309.66;5020492;28;20026;-82
2022/04/03 01:11:48;;;;;;;8.48;3.70;;;;;;;-1.19;69.46;102314.50;5012018;28;20022;-82
2022/04/03 01:14:15;;;;;;;7.30;4.00;;;;;;;-1.22;69.53;102304.88;5013865;28;20063;-82
2022/04/03 01:16:40;;;;;;;8.77;4.20;;;;;;;-1.24;69.93;102307.28;5020490;28;20038;-82
2022/04/03 01:19:05;;;;;;;8.30;3.83;;;;;;;-1.25;70.00;102310.56;5021664;28;20324;-82
2022/04/03 01:21:31;;;;;;;8.85;4.32;;;;;;;-1.24;70.16;102311.50;5018189;28;20292;-82
2022/04/03 01:23:56;;;;;;;9.60;4.10;;;;;;;-1.28;70.13;102312.84;5014182;28;20030;-81
2022/04/03 01:26:24;;;;;;;8.05;4.40;;;;;;;-1.32;69.92;102308.22;5017179;28;20073;-82
2022/04/03 01:28:51;;;;;;;7.65;4.13;;;;;;;-1.33;70.76;102308.06;5012804;28;20064;-82
2022/04/03 01:31:17;;;;;;;7.65;4.43;;;;;;;-1.40;71.32;102302.38;5017251;28;20030;-82
2022/04/03 01:33:42;;;;;;;8.63;3.95;;;;;;;-1.50;71.71;102306.47;5017907;28;20103;-82
2022/04/03 01:36:07;;;;;;;9.35;4.38;;;;;;;-1.51;71.96;102313.22;5012017;28;20051;-82
2022/04/03 01:38:32;;;;;;;7.78;3.95;;;;;;;-1.55;71.74;102308.59;5006892;28;20033;-82
2022/04/03 01:40:58;;;;;;;9.35;4.47;;;;;;;-1.58;72.16;102300.59;5011277;28;20021;-82
2022/04/03 01:43:23;;;;;;;7.53;4.60;;;;;;;-1.62;72.88;102304.53;5010160;28;20024;-82
2022/04/03 01:45:48;;;;;;;7.20;4.03;;;;;;;-1.67;72.94;102303.16;5019535;28;20021;-82
2022/04/03 01:48:14;;;;;;;8.43;4.50;;;;;;;-1.71;72.78;102298.50;5017217;28;20010;-82
2022/04/03 01:50:39;;;;;;;8.82;4.85;;;;;;;-1.72;72.46;102299.28;5015996;28;20024;-82
2022/04/03 01:53:05;;;;;;;10.23;4.88;;;;;;;-1.70;73.48;102299.44;5011482;28;20025;-82
2022/04/03 01:55:31;;;;;;;8.00;4.32;;;;;;;-1.73;73.39;102297.47;5020639;28;20033;-82
2022/04/03 01:57:56;;;;;;;9.70;4.47;;;;;;;-1.79;72.72;102299.44;5022435;28;20306;-82
2022/04/03 02:00:22;;;;;;;7.75;4.57;;;;;;;-1.81;72.80;102298.38;5021321;28;20022;-83
2022/04/03 02:02:49;;;;;;;8.00;4.72;;;;;;;-1.83;72.77;102292.22;5022326;28;20018;-82
2022/04/03 02:05:14;;;;;;;7.85;4.70;;;;;;;-1.83;74.07;102294.78;5015286;28;20018;-82
2022/04/03 02:07:40;;;;;;;8.63;5.28;;;;;;;-1.84;74.26;102288.78;5014949;28;20084;-81
2022/04/03 02:10:12;;;;;;;8.35;4.70;;;;;;;-1.92;74.76;102295.69;5014530;28;20022;-83
2022/04/03 02:12:40;;;;;;;10.02;5.00;;;;;;;-1.97;74.38;102296.00;5017758;28;20026;-82
2022/04/03 02:15:07;;;;;;;10.38;5.28;;;;;;;-1.99;73.42;102293.28;5019114;28;20097;-82
2022/04/03 02:17:32;;;;;;;8.50;5.18;;;;;;;-2.02;73.96;102292.09;5014255;28;20036;-82
2022/04/03 02:19:58;;;;;;;10.50;4.63;;;;;;;-2.08;75.07;102284.75;5022872;28;20049;-82
2022/04/03 02:22:23;;;;;;;8.63;4.90;;;;;;;-2.11;74.30;102287.88;5014838;28;20064;-82
2022/04/03 02:24:48;;;;;;;11.73;5.82;;;;;;;-2.15;73.67;102290.88;5015505;28;20038;-82
2022/04/03 02:27:14;;;;;;;12.13;5.55;;;;;;;-2.16;74.09;102289.09;5016805;28;20026;-81
2022/04/03 02:29:39;;;;;;;8.98;5.20;;;;;;;-2.14;74.05;102291.81;5016366;28;20017;-82
2022/04/03 02:32:04;;;;;;;11.90;7.15;;;;;;;-2.14;73.80;102284.16;5015242;28;20187;-82
2022/04/03 02:34:30;;;;;;;11.27;5.57;;;;;;;-2.14;73.63;102287.59;5008968;28;20279;-82
2022/04/03 02:36:55;;;;;;;11.05;5.88;;;;;;;-2.14;73.75;102285.03;5023123;28;20029;-82
2022/04/03 02:39:21;;;;;;;12.38;5.43;;;;;;;-2.16;73.20;102283.09;5024490;28;20033;-82
2022/04/03 02:41:47;;;;;;;12.23;6.05;;;;;;;-2.17;73.80;102283.81;5021259;28;20216;-82
2022/04/03 02:44:13;;;;;;;10.93;5.50;;;;;;;-2.18;73.68;102287.16;5011671;28;20018;-82
2022/04/03 02:46:39;;;;;;;10.40;5.72;;;;;;;-2.21;73.89;102284.31;5023152;28;20044;-82
2022/04/03 02:49:04;;;;;;;10.70;5.93;;;;;;;-2.25;73.62;102289.84;5020709;28;20240;-82
2022/04/03 02:51:30;;;;;;;12.60;5.82;;;;;;;-2.28;73.66;102288.78;5019190;28;20076;-82
2022/04/03 02:53:55;;;;;;;11.98;6.07;;;;;;;-2.31;74.31;102293.59;5019011;28;20060;-82
2022/04/03 02:56:20;;;;;;;11.98;5.93;;;;;;;-2.34;73.84;102295.84;5017121;28;20143;-81
2022/04/03 02:58:46;;;;;;;12.07;5.63;;;;;;;-2.37;74.03;102293.00;5017004;28;20021;-82
2022/04/03 03:01:11;;;;;;;11.88;5.72;;;;;;;-2.41;73.37;102295.09;5023497;28;20024;-81
2022/04/03 03:03:37;;;;;;;12.20;5.30;;;;;;;-2.46;74.04;102297.19;5022989;28;20308;-82
2022/04/03 03:06:02;;;;;;;11.38;6.28;;;;;;;-2.50;74.35;102301.06;5016992;28;20025;-82
2022/04/03 03:08:28;;;;;;;9.63;5.40;;;;;;;-2.51;74.50;102299.25;5017862;28;20025;-75
2022/04/03 03:10:53;;;;;;;11.98;5.32;;;;;;;-2.52;74.90;102294.94;5023037;28;20032;-75
2022/04/03 03:13:19;;;;;;;10.75;5.53;;;;;;;-2.52;75.18;102296.56;5014923;28;20281;-75
2022/04/03 03:15:44;;;;;;;12.57;5.97;;;;;;;-2.53;74.80;102300.78;5014535;28;20049;-75
2022/04/03 03:18:09;;;;;;;11.85;5.00;;;;;;;-2.55;74.74;102302.28;5014267;28;20273;-75
2022/04/03 03:20:35;;;;;;;13.95;5.82;;;;;;;-2.57;74.77;102307.97;5021002;28;20034;-75
2022/04/03 03:23:00;;;;;;;12.65;5.90;;;;;;;-2.56;74.93;102304.66;5019951;28;20025;-75
2022/04/03 03:25:27;;;;;;;11.05;5.88;;;;;;;-2.56;75.28;102302.09;5014039;28;20113;-75
2022/04/03 03:27:52;;;;;;;11.18;5.57;;;;;;;-2.56;74.93;102303.03;5012236;28;20089;-75
2022/04/03 03:30:18;;;;;;;12.07;5.63;;;;;;;-2.56;75.76;102314.84;5009067;28;20124;-75
2022/04/03 03:32:43;;;;;;;10.35;5.70;;;;;;;-2.55;75.82;102304.84;5019419;28;20032;-75
2022/04/03 03:35:10;;;;;;;10.90;5.78;;;;;;;-2.55;75.44;102306.47;5017960;28;20025;-75
2022/04/03 03:37:36;;;;;;;13.57;6.35;;;;;;;-2.56;75.54;102302.09;5016234;28;20037;-82
2022/04/03 03:40:03;;;;;;;12.63;6.15;;;;;;;-2.55;75.62;102307.38;5013621;28;20025;-82
2022/04/03 03:42:29;;;;;;;11.95;6.15;;;;;;;-2.55;75.36;102312.50;5013936;28;20034;-82
2022/04/03 03:44:54;;;;;;;13.13;5.80;;;;;;;-2.52;75.48;102306.78;5012096;28;20101;-82
2022/04/03 03:47:20;;;;;;;12.10;6.28;;;;;;;-2.51;75.18;102309.47;5018550;28;20025;-82
2022/04/03 03:49:45;;;;;;;11.70;6.20;;;;;;;-2.50;75.59;102312.94;5012646;28;20315;-82
2022/04/03 03:52:12;;;;;;;10.65;6.07;;;;;;;-2.50;75.13;102307.84;5013006;28;20018;-82
2022/04/03 03:54:38;;;;;;;13.70;6.75;;;;;;;-2.50;75.89;102308.72;5018382;28;20022;-82
2022/04/03 03:57:03;;;;;;;11.98;5.95;;;;;;;-2.52;76.08;102309.31;5018995;28;20032;-81
2022/04/03 03:59:29;;;;;;;11.20;5.60;;;;;;;-2.59;75.79;102309.47;5014140;28;20331;-82
2022/04/03 04:01:54;;;;;;;13.15;5.90;;;;;;;-2.66;74.94;102305.41;5016124;28;20071;-81
2022/04/03 04:04:19;;;;;;;11.48;5.90;;;;;;;-2.70;75.78;102309.28;5016958;28;20170;-82
2022/04/03 04:06:45;;;;;;;13.02;6.13;;;;;;;-2.73;75.43;102311.53;5011623;28;20034;-82
2022/04/03 04:09:10;;;;;;;12.63;6.05;;;;;;;-2.73;75.47;102313.19;5011340;28;20030;-82
2022/04/03 04:11:35;;;;;;;11.18;6.15;;;;;;;-2.74;76.01;102319.91;5013280;28;20069;-82
2022/04/03 04:14:00;;;;;;;12.15;6.82;;;;;;;-2.74;76.11;102309.72;5016591;28;20052;-82
2022/04/03 04:16:26;;;;;;;12.95;6.50;;;;;;;-2.74;75.64;102307.16;5020297;28;20036;-82
2022/04/03 04:18:51;;;;;;;11.32;6.00;;;;;;;-2.75;75.62;102312.13;5015342;28;20025;-80
2022/04/03 04:21:17;;;;;;;10.55;5.97;;;;;;;-2.78;75.62;102310.19;5018801;28;20085;-82
2022/04/03 04:23:43;;;;;;;10.63;5.95;;;;;;;-2.80;76.56;102311.66;5012484;28;20017;-81
2022/04/03 04:26:08;;;;;;;12.02;5.85;;;;;;;-2.83;76.73;102316.47;5012297;28;20022;-81
2022/04/03 04:28:34;;;;;;;11.95;6.18;;;;;;;-2.84;76.88;102317.19;5009923;28;20310;-82
2022/04/03 04:30:59;;;;;;;14.35;6.72;;;;;;;-2.86;76.80;102316.16;5014688;28;20049;-82
2022/04/03 04:33:25;;;;;;;11.80;6.53;;;;;;;-2.87;76.73;102314.34;5015135;28;20192;-82
2022/04/03 04:35:51;;;;;;;13.32;5.97;;;;;;;-2.91;77.06;102320.78;5019245;28;20016;-82
2022/04/03 04:38:17;;;;;;;14.13;6.28;;;;;;;-2.93;76.88;102322.25;5018477;28;20175;-81
2022/04/03 04:40:43;;;;;;;12.38;6.72;;;;;;;-2.92;75.91;102318.97;5015421;28;20097;-82
2022/04/03 04:43:09;;;;;;;13.18;6.03;;;;;;;-2.93;76.05;102316.28;5020418;28;20022;-82
2022/04/03 04:45:35;;;;;;;12.18;6.93;;;;;;;-2.95;75.80;102322.84;5017038;28;20029;-82
2022/04/03 04:48:00;;;;;;;14.73;7.13;;;;;;;-3.00;76.60;102320.75;5017861;28;20038;-82
2022/04/03 04:50:27;;;;;;;15.73;6.82;;;;;;;-3.01;76.74;102316.41;5013459;28;20026;-82
2022/04/03 04:52:53;;;;;;;16.88;7.38;;;;;;;-3.04;76.75;102326.28;5016883;28;20036;-82
2022/04/03 04:55:19;;;;;;;13.23;7.00;;;;;;;-3.08;76.99;102323.28;5014758;28;20046;-82
2022/04/03 04:57:50;;;;;;;13.40;6.78;;;;;;;-3.11;77.02;102330.56;5023042;28;20021;-82
2022/04/03 05:00:17;;;;;;;13.77;6.95;;;;;;;-3.12;76.38;102339.00;5023141;28;20040;-82
2022/04/03 05:02:46;;;;;;;12.68;6.75;;;;;;;-3.17;76.62;102341.09;5023130;28;20014;-82
2022/04/03 05:05:13;;;;;;;12.40;7.03;;;;;;;-3.20;76.16;102343.28;5016981;28;20287;-81
2022/04/03 05:07:39;;;;;;;14.60;6.22;;;;;;;-3.28;75.89;102345.06;5021518;28;20038;-81
2022/04/03 05:10:06;;;;;;;14.63;6.13;;;;;;;-3.33;76.36;102344.59;5017968;28;20033;-82
2022/04/03 05:12:31;;;;;;;13.40;6.35;;;;;;;-3.33;76.67;102352.22;5021165;28;20277;-82
2022/04/03 05:14:57;;;;;;;15.18;7.22;;;;;;;-3.33;78.14;102339.50;5012881;28;20080;-82
2022/04/03 05:17:22;;;;;;;12.57;6.65;;;;;;;-3.29;78.29;102345.78;5019865;28;20314;-82
2022/04/03 05:19:48;;;;;;;13.07;7.40;;;;;;;-3.28;77.86;102346.72;5013459;28;20311;-82
2022/04/03 05:22:13;;;;;;;12.13;6.78;;;;;;;-3.26;77.85;102351.19;5010857;28;20042;-82
2022/04/03 05:24:38;;;;;;;16.20;7.38;;;;;;;-3.21;77.68;102359.34;5019737;28;20273;-82
2022/04/03 05:27:05;;;;;;;14.93;7.28;;;;;;;-3.20;77.88;102356.03;5020308;28;20029;-82
2022/04/03 05:29:34;;;;;;;13.25;7.30;;;;;;;-3.16;78.45;102350.50;5019944;28;20084;-82
2022/04/03 05:31:59;;;;;;;14.82;7.32;;;;;;;-3.14;78.73;102354.13;5018039;28;20022;-82
2022/04/03 05:34:25;;;;;;;13.27;7.90;;;;;;;-3.11;78.30;102363.72;5019537;28;20213;-81
2022/04/03 05:36:50;;;;;;;16.55;7.30;;;;;;;-3.09;78.88;102359.69;5014458;28;20089;-81
2022/04/03 05:39:15;;;;;;;14.93;7.38;;;;;;;-3.05;78.78;102357.63;5018614;28;20014;-82
2022/04/03 05:41:41;;;;;;;14.10;8.13;;;;;;;-3.00;79.01;102361.56;5021615;28;20026;-82
2022/04/03 05:44:06;;;;;;;16.42;8.00;;;;;;;-2.96;78.60;102365.31;5019363;28;20069;-82
2022/04/03 05:46:31;;;;;;;16.45;8.38;;;;;;;-2.92;78.77;102364.88;5015347;28;20032;-82
2022/04/03 05:48:57;;;;;;;14.50;8.20;;;;;;;-2.87;78.80;102362.78;5022891;28;20265;-82
2022/04/03 05:51:22;;;;;;;16.08;7.75;;;;;;;-2.84;79.78;102369.13;5019191;28;20022;-82
2022/04/03 05:53:48;;;;;;;16.65;9.27;;;;;;;-2.78;79.20;102371.41;5012966;28;20064;-82
2022/04/03 05:56:13;;;;;;;16.00;8.48;;;;;;;-2.74;79.39;102368.41;5017188;28;20049;-81
2022/04/03 05:58:38;;;;;;;18.88;8.32;;;;;;;-2.67;79.17;102370.81;5017846;28;20073;-82
2022/04/03 06:01:04;;;;;;;16.35;9.00;;;;;;;-2.62;79.73;102372.19;5018873;28;20183;-82
2022/04/03 06:03:29;;;;;;;21.17;9.82;;;;;;;-2.55;79.92;102366.09;5022702;28;20030;-82
2022/04/03 06:05:55;;;;;;;20.95;10.15;;;;;;;-2.46;80.02;102378.88;5024401;28;20021;-80
2022/04/03 06:08:20;;;;;;;18.15;9.57;;;;;;;-2.37;79.50;102379.78;5022062;28;20009;-82
2022/04/03 06:10:45;;;;;;;16.88;9.32;;;;;;;-2.31;79.63;102375.28;5021723;28;20042;-82
2022/04/03 06:13:14;;;;;;;17.60;10.00;;;;;;;-2.21;79.22;102376.22;5013808;28;20021;-82
2022/04/03 06:15:45;;;;;;;20.65;10.02;;;;;;;-2.15;79.46;102384.47;5023361;28;20038;-82
2022/04/03 06:18:12;;;;;;;17.38;9.45;;;;;;;-2.08;79.78;102381.78;5023941;28;20038;-82
2022/04/03 06:20:38;;;;;;;19.08;9.95;;;;;;;-2.00;80.12;102385.09;5016670;28;20026;-82
2022/04/03 06:23:11;;;;;;;22.67;10.38;;;;;;;-1.93;80.45;102384.94;5025001;28;20045;-82
2022/04/03 06:25:36;;;;;;;19.20;9.65;;;;;;;-1.88;80.28;102380.28;5022744;28;20017;-82
2022/04/03 06:28:02;;;;;;;19.02;10.73;;;;;;;-1.87;80.66;102385.53;5015426;28;20018;-82
2022/04/03 06:30:27;;;;;;;18.35;10.98;;;;;;;-1.83;80.60;102371.44;5018558;28;20180;-82
2022/04/03 06:32:52;;;;;;;20.77;10.98;;;;;;;-1.78;80.56;102378.81;5015542;28;20073;-82
2022/04/03 06:35:18;;;;;;;18.52;10.82;;;;;;;-1.71;80.92;102376.84;5016618;28;20339;-82
2022/04/03 06:37:43;;;;;;;24.83;11.52;;;;;;;-1.63;80.57;102371.72;5021514;28;20277;-82
2022/04/03 06:40:09;;;;;;;21.27;11.70;;;;;;;-1.53;80.13;102373.53;5018390;28;20017;-82
2022/04/03 06:42:34;;;;;;;19.00;10.77;;;;;;;-1.45;79.83;102377.72;5020561;28;20219;-82
2022/04/03 06:45:01;;;;;;;22.27;11.90;;;;;;;-1.30;80.18;102373.19;5014116;28;20028;-82
2022/04/03 06:47:27;;;;;;;22.95;11.60;;;;;;;-1.06;79.65;102383.94;5013833;28;20049;-76
2022/04/03 06:49:52;;;;;;;23.85;12.02;;;;;;;-0.84;79.37;102378.31;5016480;28;20019;-75
2022/04/03 06:52:18;;;;;;;18.90;11.25;;;;;;;-0.04;77.93;102375.47;5019817;28;20017;-75
2022/04/03 06:54:44;;;;;;;18.38;11.00;;;;;;;1.74;72.43;102376.41;5011147;28;20231;-75
2022/04/03 06:57:12;;;;;;;20.92;11.60;;;;;;;2.51;68.18;102364.72;5018613;28;20075;-75
2022/04/03 06:59:37;;;;;;;19.00;10.68;;;;;;;2.36;67.71;102366.97;5021632;28;20022;-75
2022/04/03 07:02:03;;;;;;;23.75;12.80;;;;;;;2.14;68.58;102373.69;5014854;28;20056;-75
2022/04/03 07:04:29;;;;;;;21.73;12.43;;;;;;;3.74;65.65;102369.97;5013861;28;20260;-75
2022/04/03 07:06:54;;;;;;;21.25;11.45;;;;;;;5.02;60.21;102364.69;5021046;28;20041;-75
2022/04/03 07:09:19;;;;;;;22.08;11.38;;;;;;;4.91;60.31;102373.41;5008517;28;20146;-75
2022/04/03 07:11:44;;;;;;;24.05;12.18;;;;;;;5.90;58.18;102367.25;5017535;28;20064;-75
2022/04/03 07:14:10;;;;;;;22.63;11.57;;;;;;;6.27;56.75;102372.31;5016076;28;20283;-75
2022/04/03 07:16:35;;;;;;;19.55;12.32;;;;;;;7.41;55.00;102369.13;5021597;28;20021;-75
2022/04/03 07:19:00;;;;;;;19.45;12.10;;;;;;;7.69;52.40;102370.84;5014906;28;20045;-75
2022/04/03 07:21:26;;;;;;;21.60;12.50;;;;;;;6.95;53.38;102377.56;5023066;28;20276;-75
2022/04/03 07:23:51;;;;;;;21.10;12.93;;;;;;;6.27;55.56;102374.88;5016752;28;20056;-75
2022/04/03 07:26:16;;;;;;;18.80;11.52;;;;;;;5.65;57.05;102368.19;5020324;28;20304;-75
2022/04/03 07:28:41;;;;;;;21.75;12.88;;;;;;;5.05;59.60;102372.69;5018077;28;20013;-75
2022/04/03 07:31:08;;;;;;;24.65;12.73;;;;;;;4.56;61.07;102379.47;5021720;28;20018;-75
2022/04/03 07:33:33;;;;;;;21.17;13.05;;;;;;;4.12;62.89;102379.69;5022781;28;20017;-74
2022/04/03 07:36:00;;;;;;;23.73;13.43;;;;;;;3.75;64.68;102377.81;5013873;28;20080;-74
2022/04/03 07:38:26;;;;;;;24.23;12.68;;;;;;;3.49;66.01;102386.16;5014375;28;20100;-75
2022/04/03 07:40:52;;;;;;;24.00;12.82;;;;;;;3.33;68.60;102393.44;5016522;28;20081;-75
2022/04/03 07:43:17;;;;;;;23.98;12.30;;;;;;;3.22;69.24;102390.03;5014842;28;20279;-75
2022/04/03 07:45:43;;;;;;;20.92;12.30;;;;;;;3.17;70.18;102388.78;5020868;28;20049;-75
2022/04/03 07:48:09;;;;;;;18.65;12.18;;;;;;;3.15;70.64;102392.91;5023228;28;20020;-80
2022/04/03 07:50:34;;;;;;;18.30;11.60;;;;;;;3.15;71.03;102387.75;5021388;28;20014;-80
2022/04/03 07:53:00;;;;;;;19.17;11.32;;;;;;;3.19;71.55;102398.44;5020705;28;20066;-80
2022/04/03 07:55:25;;;;;;;20.77;11.98;;;;;;;3.22;71.34;102393.50;5020917;28;20025;-81
2022/04/03 07:57:50;;;;;;;19.58;10.70;;;;;;;3.28;71.62;102388.81;5022591;28;20089;-80
2022/04/03 08:00:16;;;;;;;16.20;9.75;;;;;;;3.34;71.21;102390.97;5019552;28;20033;-80
2022/04/03 08:02:42;;;;;;;14.98;9.27;;;;;;;3.38;70.94;102393.03;5023351;28;20030;-81
2022/04/03 08:05:08;;;;;;;16.55;8.13;;;;;;;3.45;69.46;102395.31;5023693;28;20030;-80
2022/04/03 08:07:44;;;;;;;10.95;6.70;;;;;;;3.52;67.88;102394.09;5022186;28;20180;-80
2022/04/03 08:10:12;;;;;;;12.73;7.38;;;;;;;3.59;68.70;102393.81;5021280;28;20022;-81
2022/04/03 08:12:39;;;;;;;10.18;6.05;;;;;;;3.69;68.15;102386.75;5020536;28;20265;-80
2022/04/03 08:15:05;;;;;;;10.25;5.22;;;;;;;3.75;68.78;102388.13;5023348;28;20072;-80
2022/04/03 08:17:31;;;;;;;10.70;5.78;;;;;;;3.85;67.96;102387.13;5019329;28;20038;-81
2022/04/03 08:19:57;;;;;;;10.65;5.32;;;;;;;3.94;68.12;102393.00;5021960;28;20343;-80
2022/04/03 08:22:22;;;;;;;10.07;5.50;;;;;;;4.05;69.07;102391.22;5021457;28;20021;-81
2022/04/03 08:24:49;;;;;;;9.20;4.82;;;;;;;4.13;68.58;102391.81;5021306;28;20136;-80
2022/04/03 08:27:15;;;;;;;8.82;4.88;;;;;;;4.21;68.45;102387.22;5019100;28;20022;-80
2022/04/03 08:29:40;;;;;;;7.35;3.28;;;;;;;4.27;65.43;102390.25;5015859;28;20028;-80
2022/04/03 08:32:06;;;;;;;7.93;3.42;;;;;;;4.35;65.59;102396.88;5015833;28;20248;-80
2022/04/03 08:34:31;;;;;;;8.60;3.60;;;;;;;4.44;65.51;102394.97;5019890;28;20028;-80
2022/04/03 08:36:57;;;;;;;9.13;4.00;;;;;;;4.53;65.54;102402.47;5021041;28;20021;-80
2022/04/03 08:39:23;;;;;;;6.95;3.60;;;;;;;4.62;64.40;102395.44;5021900;28;20032;-81
2022/04/03 08:41:48;;;;;;;8.77;3.70;;;;;;;4.69;64.59;102394.16;5021205;28;20037;-80
2022/04/03 08:44:14;;;;;;;5.90;3.28;;;;;;;4.76;62.94;102395.53;5020588;28;20092;-80
2022/04/03 08:46:45;;;;;;;6.20;3.25;;;;;;;4.83;63.10;102390.91;5022501;28;20026;-80
2022/04/03 08:49:12;;;;;;;8.43;4.20;;;;;;;4.92;63.58;102393.25;5022922;28;20022;-79
2022/04/03 08:51:39;;;;;;;6.32;3.70;;;;;;;5.01;62.08;102401.66;5022930;28;20025;-80
2022/04/03 08:54:05;;;;;;;9.00;3.30;;;;;;;5.10;63.87;102396.25;5017639;28;20030;-80
2022/04/03 08:56:31;;;;;;;7.25;2.97;;;;;;;5.19;61.73;102406.34;5022634;28;20025;-80
2022/04/03 08:58:57;;;;;;;5.95;3.35;;;;;;;5.28;61.71;102398.34;5022661;28;20029;-79
2022/04/03 09:01:23;;;;;;;8.90;3.33;;;;;;;5.37;62.10;102402.47;5022599;28;20025;-80
2022/04/03 09:03:48;;;;;;;7.85;3.60;;;;;;;5.47;61.85;102392.75;5022354;28;20192;-80
2022/04/03 09:06:16;;;;;;;6.70;3.75;;;;;;;5.57;62.43;102395.19;5021368;28;20050;-81
2022/04/03 09:08:42;;;;;;;8.25;3.65;;;;;;;5.65;60.78;102394.03;5022650;28;20014;-80
2022/04/03 09:11:08;;;;;;;7.50;3.80;;;;;;;5.75;61.58;102395.56;5023973;28;20026;-81
2022/04/03 09:13:34;;;;;;;6.45;3.65;;;;;;;5.87;63.37;102400.69;5027024;28;20069;-81
2022/04/03 09:16:00;;;;;;;6.93;3.20;;;;;;;6.01;62.24;102389.59;5026536;28;20025;-81
2022/04/03 09:18:44;;;;;;;8.02;3.15;;;;;;;6.19;63.02;102389.03;5024749;28;20041;-81
2022/04/03 09:21:20;;;;;;;6.30;3.08;;;;;;;6.34;60.98;102384.84;5026455;28;20025;-80
2022/04/03 09:24:02;;;;;;;5.97;2.80;;;;;;;6.38;60.46;102379.09;5025851;28;20028;-80
2022/04/03 09:26:28;;;;;;;5.60;2.50;;;;;;;6.35;58.74;102376.31;5023280;28;20096;-80
2022/04/03 09:29:17;;;;;;;4.68;2.50;;;;;;;6.32;59.09;102368.34;5023518;28;20372;-80
2022/04/03 09:31:45;;;;;;;4.15;2.17;;;;;;;6.30;57.52;102376.78;5023255;28;20270;-81
2022/04/03 09:34:20;;;;;;;5.72;2.10;;;;;;;6.36;60.08;102375.50;5024433;28;20014;-81
2022/04/03 09:36:59;;;;;;;4.47;1.98;;;;;;;6.47;57.91;102378.78;5023676;28;20257;-81
2022/04/03 09:39:30;;;;;;;4.38;1.85;;;;;;;6.63;59.42;102380.66;5025776;28;20161;-80
2022/04/03 09:42:12;;;;;;;4.40;1.83;;;;;;;6.73;57.29;102377.88;5026148;28;20025;-81
2022/04/03 09:44:46;;;;;;;4.53;1.90;;;;;;;6.85;58.87;102374.28;5026523;28;20037;-80
2022/04/03 09:47:14;;;;;;;6.18;2.17;;;;;;;6.95;57.73;102372.38;5025610;28;20097;-81
2022/04/03 09:49:44;;;;;;;4.53;2.05;;;;;;;7.05;58.59;102376.41;5025962;28;20022;-81
2022/04/03 09:52:09;;;;;;;;;;;;;;;7.14;60.16;102369.25;5024787;28;20100;-81
2022/04/03 09:54:37;;;;;;;6.70;2.00;;;;;;;7.26;56.50;102369.09;5026394;28;19901;-80
2022/04/03 09:57:18;;;;;;;4.75;2.20;;;;;;;7.30;55.26;102357.25;5025969;28;20173;-76
2022/04/03 09:59:53;;;;;;;4.45;1.88;;;;;;;7.36;57.05;102359.28;5025470;28;20057;-76
2022/04/03 10:02:19;;;;;;;4.10;2.08;;;;;;;7.52;56.83;102353.31;5025142;28;20025;-76
2022/04/03 10:04:45;;;;;;;3.72;1.90;;;;;;;7.66;55.78;102349.88;5026230;28;20046;-76
2022/04/03 10:07:13;;;;;;;4.63;2.70;;;;;;;7.78;55.03;102348.00;5025367;28;20069;-76
2022/04/03 10:09:43;;;;;;;3.77;1.83;;;;;;;7.86;52.81;102342.38;5026672;28;20080;-76
2022/04/03 10:12:09;;;;;;;4.78;1.83;;;;;;;7.92;51.96;102337.53;5025737;28;20086;-76
2022/04/03 10:14:35;;;;;;;3.88;1.80;;;;;;;7.92;54.02;102329.75;5026814;28;20038;-76
2022/04/03 10:17:00;;;;;;;3.42;1.73;;;;;;;7.91;53.02;102338.38;5025518;28;20116;-76
2022/04/03 10:19:25;;;;;;;3.85;1.85;;;;;;;7.88;54.01;102331.28;5024494;28;20101;-76
2022/04/03 10:21:54;;;;;;;3.75;1.70;;;;;;;7.81;54.40;102332.63;5022171;28;20037;-76
2022/04/03 10:24:23;;;;;;;3.63;1.23;;;;;;;7.71;53.02;102335.47;5024284;28;20017;-76
2022/04/03 10:26:56;;;;;;;4.40;1.30;;;;;;;7.59;52.68;102327.88;5025786;28;20129;-81
2022/04/03 10:29:22;;;;;;;2.67;1.40;;;;;;;7.52;54.42;102322.19;5025806;28;20017;-81
2022/04/03 10:31:56;;;;;;;3.20;1.40;;;;;;;7.52;54.78;102329.97;5025641;28;20025;-81
2022/04/03 10:34:22;;;;;;;3.10;1.30;;;;;;;7.66;56.64;102322.25;5026033;28;20022;-81
2022/04/03 10:36:50;;;;;;;4.47;1.35;;;;;;;7.80;51.98;102327.34;5024748;28;20025;-81
2022/04/03 10:39:23;;;;;;;2.53;1.30;;;;;;;7.77;52.57;102328.06;5025105;28;20025;-81
2022/04/03 10:41:48;;;;;;;3.50;1.33;;;;;;;7.70;51.45;102319.81;5020529;28;20217;-81
2022/04/03 10:44:19;;;;;;;3.05;1.40;;;;;;;7.66;52.66;102322.25;5025972;28;20021;-81
2022/04/03 10:47:03;;;;;;;2.65;1.20;;;;;;;7.62;53.54;102321.97;5024269;28;20064;-80
2022/04/03 10:49:30;;;;;;;4.95;1.30;;;;;;;7.62;53.15;102319.38;5024425;28;20020;-80
2022/04/03 10:52:09;;;;;;;4.50;1.88;;;;;;;7.59;54.87;102317.50;5022849;28;20356;-82
2022/04/03 10:54:43;;;;;;;3.92;1.83;;;;;;;7.52;53.52;102317.00;5022625;28;20053;-80
2022/04/03 10:57:46;;;;;;;3.90;1.70;;;;;;;7.42;52.87;102308.69;5022572;28;20052;-81
2022/04/03 11:00:14;;;;;;;3.55;1.70;;;;;;;7.31;52.28;102309.75;5024983;28;20118;-82
2022/04/03 11:03:00;;;;;;;3.92;1.80;;;;;;;7.24;52.27;102308.50;5024814;28;20049;-81
2022/04/03 11:05:25;;;;;;;3.20;1.70;;;;;;;7.18;52.10;102302.03;5025181;28;20169;-81
2022/04/03 11:07:59;;;;;;;3.73;2.13;;;;;;;7.15;53.36;102307.91;5018517;28;20068;-82
2022/04/03 11:10:52;;;;;;;3.35;2.00;;;;;;;7.18;56.04;102304.63;5018561;28;20320;-81
2022/04/03 11:13:38;;;;;;;4.53;2.00;;;;;;;7.24;56.06;102307.56;5011843;28;20268;-81
2022/04/03 11:16:05;;;;;;;3.40;1.98;;;;;;;7.24;54.26;102303.31;5024420;28;20021;-80
2022/04/03 11:18:37;;;;;;;3.20;1.70;;;;;;;7.22;54.85;102299.72;5022418;28;20112;-81
2022/04/03 11:21:25;;;;;;;4.68;2.20;;;;;;;7.25;56.82;102299.88;5008080;28;20029;-81